Aldrich, Minnesota
Current Conditions -  °F | °C
As of 12:13 AM on Sunday 26 Oct 2014 (Local Time) from KSAZ Reporting Station
Clear Clear  
Wind Chill: 36°   Ceiling: Unl
Heat Index: 36°   Visibility: 10mi
Dew Point: 27°   Wind: 0mph
Humidity: 70%   Direction: NA
Pressure: 30.02"   Gusts: NA
Location:  46.38°N, 94.94°W
Report Text: KSAZ 260513Z AUTO 00000KT 10SM CLR 02/M03 A3002 RMK AO2
Loading
Personal Weather Stations






























Interactive Weather Map New forecast layout! Learn more

10-Day Weather Forecast

Advertisements
Track Severe Weather on mobile